Grand Forks, North Dakota
Current Conditions -  °F | °C
As of 5:53 AM on Friday 31 Oct 2014 (Local Time) from KGFK Reporting Station
Clear Clear  
Wind Chill: 12°   Ceiling: Unl
Heat Index: 12°   Visibility: 10mi
Dew Point:   Wind: 3mph
Humidity: 88%   Direction: 300°WNW
Pressure: 30.62"   Gusts: NA
Location:  47.92°N, 97.03°W
Report Text: KGFK 311053Z 30003KT 10SM CLR M11/M13 A3062 RMK AO2 SLP385 T11111128
Loading
Personal Weather Stations






























Interactive Weather Map New forecast layout! Learn more

10-Day Weather Forecast

Advertisements
Track Severe Weather on mobile